Time;durP1;ratioP1;P1;durP2;ratioP2;P2;SDS_P1;SDS_P2;PMS_P1;PMS_P2;Temp;Humidity;BMP_temperature;BMP_pressure;BME280_temperature;BME280_humidity;BME280_pressure;Samples;Min_cycle;Max_cycle;Signal;HPM_P1;HPM_P2
2022/04/06 00:00:13;;;;;;;3.65;2.30;;;;;;;18.21;40.09;99086.84;4956815;29;20039;-86
2022/04/06 00:02:40;;;;;;;3.40;2.10;;;;;;;18.20;40.17;99081.63;4957521;29;20065;-85
2022/04/06 00:05:10;;;;;;;4.05;2.20;;;;;;;18.20;40.25;99087.78;4958720;29;20055;-86
2022/04/06 00:07:40;;;;;;;3.72;2.20;;;;;;;18.19;40.16;99086.09;4944195;29;20019;-86
2022/04/06 00:10:08;;;;;;;3.60;1.90;;;;;;;18.19;40.22;99086.09;4961481;29;20031;-86
2022/04/06 00:12:34;;;;;;;3.95;2.20;;;;;;;18.18;40.45;99080.88;4945789;29;20034;-87
2022/04/06 00:15:00;;;;;;;3.65;1.80;;;;;;;18.19;40.20;99086.09;4967537;29;20374;-86
2022/04/06 00:17:27;;;;;;;4.40;2.25;;;;;;;18.20;40.35;99085.16;4953456;29;20030;-85
2022/04/06 00:19:53;;;;;;;3.50;1.92;;;;;;;18.19;40.44;99079.94;4942667;29;20094;-86
2022/04/06 00:22:19;;;;;;;4.53;2.00;;;;;;;18.18;40.00;99073.81;4941718;29;20210;-86
2022/04/06 00:24:45;;;;;;;4.00;2.05;;;;;;;18.17;40.34;99069.47;4958733;29;20081;-86
2022/04/06 00:27:11;;;;;;;3.80;2.17;;;;;;;18.17;40.37;99077.41;4942593;29;20425;-86
2022/04/06 00:29:36;;;;;;;3.97;2.15;;;;;;;18.18;40.30;99067.69;4942461;29;20041;-86
2022/04/06 00:32:03;;;;;;;4.32;2.20;;;;;;;18.18;40.23;99072.97;4941914;29;20023;-86
2022/04/06 00:37:12;;;;;;;3.88;2.17;;;;;;;18.17;40.06;99066.84;4959442;29;20489;-86
2022/04/06 00:39:38;;;;;;;3.30;1.85;;;;;;;18.17;40.34;99069.47;4959347;29;20031;-86
2022/04/06 00:42:04;;;;;;;4.07;2.17;;;;;;;18.17;40.27;99063.34;4957892;29;20027;-86
2022/04/06 00:44:34;;;;;;;5.25;2.67;;;;;;;18.15;40.24;99063.41;4942462;29;20520;-86
2022/04/06 00:47:01;;;;;;;5.45;2.60;;;;;;;18.16;40.48;99067.75;4959730;29;20031;-86
2022/04/06 00:49:26;;;;;;;4.10;2.25;;;;;;;18.16;40.44;99059.84;4943250;29;20477;-85
2022/04/06 00:51:52;;;;;;;3.47;2.20;;;;;;;18.14;40.34;99056.44;4944968;29;20034;-86
2022/04/06 00:54:21;;;;;;;3.65;2.20;;;;;;;18.15;40.18;99055.50;4944148;29;20050;-86
2022/04/06 00:56:48;;;;;;;3.70;1.95;;;;;;;18.14;40.22;99059.06;4945051;29;20117;-86
2022/04/06 00:59:16;;;;;;;4.10;2.38;;;;;;;18.14;40.48;99045.88;4944742;29;20031;-86
2022/04/06 01:01:43;;;;;;;3.33;1.75;;;;;;;18.14;40.15;99050.28;4945038;29;20031;-85
2022/04/06 01:04:09;;;;;;;4.35;2.30;;;;;;;18.13;40.38;99044.19;4962278;29;20055;-86
2022/04/06 01:06:34;;;;;;;3.65;2.08;;;;;;;18.13;40.47;99038.91;4962361;29;20094;-86
2022/04/06 01:09:01;;;;;;;3.83;2.25;;;;;;;18.12;40.29;99037.19;4947338;29;20427;-86
2022/04/06 01:11:27;;;;;;;3.08;1.92;;;;;;;18.12;40.38;99042.47;4947999;29;20031;-86
2022/04/06 01:13:54;;;;;;;3.50;1.98;;;;;;;18.13;40.39;99044.19;4947083;29;20038;-86
2022/04/06 01:16:20;;;;;;;4.38;2.40;;;;;;;18.10;40.27;99039.91;4942303;29;20097;-86
2022/04/06 01:18:45;;;;;;;3.30;2.00;;;;;;;18.11;40.37;99040.75;4959546;29;20030;-86
2022/04/06 01:21:12;;;;;;;4.45;2.15;;;;;;;18.10;40.22;99032.00;4942248;29;20046;-86
2022/04/06 01:23:44;;;;;;;4.00;2.13;;;;;;;18.10;40.10;99029.34;4940776;29;20476;-86
2022/04/06 01:26:11;;;;;;;4.15;2.28;;;;;;;18.11;40.23;99024.91;4939656;29;20023;-86
2022/04/06 01:28:38;;;;;;;2.60;1.80;;;;;;;18.10;40.18;99029.34;4956919;29;20106;-85
2022/04/06 01:31:04;;;;;;;3.78;1.90;;;;;;;18.10;40.59;99020.56;4939608;29;20118;-85
2022/04/06 01:33:30;;;;;;;2.67;1.80;;;;;;;18.10;40.42;99020.56;4956500;29;20035;-85
2022/04/06 01:35:58;;;;;;;3.55;1.90;;;;;;;18.08;40.24;99020.69;4939716;29;20031;-86
2022/04/06 01:38:24;;;;;;;3.53;2.22;;;;;;;18.09;40.20;99016.22;4939712;29;20473;-85
2022/04/06 01:40:51;;;;;;;4.07;1.90;;;;;;;18.09;40.39;99013.59;4939704;29;20054;-86
2022/04/06 01:43:16;;;;;;;3.78;2.13;;;;;;;18.10;40.47;99015.28;4956674;29;20070;-86
2022/04/06 01:45:42;;;;;;;3.45;2.17;;;;;;;18.10;40.40;99013.50;4957124;29;20050;-85
2022/04/06 01:48:07;;;;;;;3.90;2.10;;;;;;;18.08;40.16;99009.25;4941239;29;20101;-85
2022/04/06 01:53:18;;;;;;;3.83;2.00;;;;;;;18.07;40.12;98999.63;4961616;29;20059;-86
2022/04/06 01:55:44;;;;;;;5.10;2.25;;;;;;;18.07;40.43;98997.00;4961481;29;20046;-85
2022/04/06 01:58:10;;;;;;;3.88;1.98;;;;;;;18.06;40.32;98993.50;4944437;29;20117;-86
2022/04/06 02:00:35;;;;;;;3.40;2.00;;;;;;;18.05;40.52;98988.25;4960296;29;20424;-85
2022/04/06 02:03:01;;;;;;;3.92;2.20;;;;;;;18.04;40.18;98982.16;4961445;29;20054;-85
2022/04/06 02:05:32;;;;;;;3.75;1.90;;;;;;;18.04;40.39;98989.19;4943987;29;20047;-86
2022/04/06 02:07:59;;;;;;;3.35;1.85;;;;;;;18.04;40.20;98990.06;4960103;29;20050;-86
2022/04/06 02:10:25;;;;;;;4.00;2.13;;;;;;;18.04;40.14;98981.28;4944076;29;20035;-86
2022/04/06 02:12:54;;;;;;;3.35;1.98;;;;;;;18.04;40.39;98978.63;4944967;29;20074;-86
2022/04/06 02:15:20;;;;;;;4.38;2.40;;;;;;;18.04;40.42;98978.63;4944863;29;20062;-86
2022/04/06 02:17:47;;;;;;;3.40;2.10;;;;;;;18.03;40.35;98975.16;4944714;29;20031;-85
2022/04/06 02:20:13;;;;;;;4.82;2.30;;;;;;;18.04;40.41;98976.00;4961321;29;20041;-86
2022/04/06 02:22:39;;;;;;;3.60;1.77;;;;;;;18.02;40.42;98968.16;4962625;29;20046;-87
2022/04/06 02:25:05;;;;;;;3.95;2.20;;;;;;;18.01;40.19;98961.19;4947828;29;20027;-86
2022/04/06 02:27:30;;;;;;;3.30;2.08;;;;;;;18.01;40.33;98961.19;4965056;29;20035;-86
2022/04/06 02:29:56;;;;;;;4.00;2.30;;;;;;;18.01;40.34;98963.00;4947855;29;20162;-86
2022/04/06 02:32:21;;;;;;;4.63;2.20;;;;;;;18.00;40.43;98953.38;4964520;29;20031;-86
2022/04/06 02:34:47;;;;;;;4.15;2.20;;;;;;;17.98;40.28;98951.66;4948571;29;20027;-86
2022/04/06 02:37:13;;;;;;;3.40;2.13;;;;;;;17.97;40.34;98947.31;4948897;29;20101;-86
2022/04/06 02:39:38;;;;;;;3.10;1.80;;;;;;;17.98;40.24;98946.38;4958736;29;20028;-86
2022/04/06 02:42:05;;;;;;;3.78;2.20;;;;;;;17.97;40.40;98955.22;4956161;29;20032;-86
2022/04/06 02:44:31;;;;;;;3.10;1.63;;;;;;;17.97;40.25;98944.66;4943617;29;20377;-86
2022/04/06 02:46:56;;;;;;;3.17;1.92;;;;;;;17.96;40.56;98953.53;4942119;29;20019;-86
2022/04/06 02:49:22;;;;;;;3.70;2.47;;;;;;;17.95;40.39;98954.47;4942019;29;20113;-87
2022/04/06 02:51:48;;;;;;;2.92;1.60;;;;;;;17.95;40.38;98951.84;4941908;29;20141;-86
2022/04/06 02:54:13;;;;;;;3.42;2.05;;;;;;;17.95;40.25;98941.28;4941893;29;20027;-85
2022/04/06 02:56:39;;;;;;;3.85;2.03;;;;;;;17.95;40.29;98949.19;4959377;29;20032;-87
2022/04/06 02:59:05;;;;;;;3.38;2.05;;;;;;;17.95;40.44;98943.06;4958274;28;20030;-85
2022/04/06 03:01:31;;;;;;;2.97;2.10;;;;;;;17.95;40.42;98949.19;4958963;29;20114;-86
2022/04/06 03:03:57;;;;;;;3.35;1.95;;;;;;;17.94;40.49;98939.56;4941965;29;20097;-85
2022/04/06 03:06:22;;;;;;;3.75;1.83;;;;;;;17.93;40.47;98942.28;4959010;29;20501;-85
2022/04/06 03:08:48;;;;;;;3.70;2.00;;;;;;;17.93;40.50;98937.84;4960498;29;20028;-86
2022/04/06 03:11:14;;;;;;;3.80;2.08;;;;;;;17.93;40.39;98937.84;4944061;29;20027;-86
2022/04/06 03:13:39;;;;;;;4.22;2.08;;;;;;;17.92;40.30;98941.44;4961189;29;20031;-86
2022/04/06 03:16:06;;;;;;;3.70;2.00;;;;;;;17.93;40.30;98937.03;4944546;29;20536;-85
2022/04/06 03:18:32;;;;;;;2.70;1.80;;;;;;;17.92;40.52;98932.69;4944961;29;20031;-86
2022/04/06 03:20:58;;;;;;;3.58;2.22;;;;;;;17.92;40.59;98941.44;4944424;29;20027;-86
2022/04/06 03:23:23;;;;;;;3.17;1.92;;;;;;;17.91;40.57;98939.75;4945258;29;20031;-86
2022/04/06 03:25:49;;;;;;;3.72;2.10;;;;;;;17.89;40.60;98933.72;4948706;29;20428;-86
2022/04/06 03:28:15;;;;;;;4.35;1.88;;;;;;;17.92;40.46;98935.31;4964293;28;20402;-86
2022/04/06 03:30:41;;;;;;;3.00;1.80;;;;;;;17.90;40.56;98931.91;4947692;29;20039;-86
2022/04/06 03:33:09;;;;;;;3.65;2.00;;;;;;;17.88;40.49;98929.38;4948016;29;20034;-87
2022/04/06 03:35:38;;;;;;;3.58;2.22;;;;;;;17.88;40.35;98928.50;4965460;29;20024;-85
2022/04/06 03:38:04;;;;;;;4.80;2.80;;;;;;;17.87;40.21;98927.63;4948408;29;20031;-86
2022/04/06 03:40:30;;;;;;;3.53;1.50;;;;;;;17.86;40.56;98925.94;4948833;29;20027;-86
2022/04/06 03:42:56;;;;;;;4.13;1.92;;;;;;;17.86;40.44;98923.31;4949364;29;20038;-86
2022/04/06 03:45:22;;;;;;;3.28;2.00;;;;;;;17.84;40.42;98917.28;4949860;29;20027;-87
2022/04/06 03:47:48;;;;;;;3.75;2.03;;;;;;;17.85;40.48;98924.25;4949696;29;20034;-86
2022/04/06 03:50:15;;;;;;;3.22;1.92;;;;;;;17.84;40.80;98918.09;4949710;29;20019;-87
2022/04/06 03:52:40;;;;;;;3.80;1.90;;;;;;;17.84;40.51;98912.81;4962511;29;20035;-86
2022/04/06 03:55:08;;;;;;;3.20;1.75;;;;;;;17.84;40.37;98912.00;4941035;29;20094;-86
2022/04/06 03:57:35;;;;;;;3.90;1.58;;;;;;;17.84;40.59;98906.72;4941305;29;20038;-85
2022/04/06 04:00:04;;;;;;;3.25;1.90;;;;;;;17.86;40.57;98915.38;4959716;29;20377;-86
2022/04/06 04:02:30;;;;;;;3.50;1.92;;;;;;;17.84;40.56;98909.34;4958093;29;20027;-86
2022/04/06 04:04:55;;;;;;;2.53;1.60;;;;;;;17.84;40.57;98906.72;4940820;29;20137;-85
2022/04/06 04:07:21;;;;;;;4.30;2.10;;;;;;;17.85;40.50;98905.78;4941341;29;20051;-86
2022/04/06 04:09:49;;;;;;;3.47;1.77;;;;;;;17.84;40.54;98909.34;4940263;29;20078;-86
2022/04/06 04:12:15;;;;;;;3.80;2.08;;;;;;;17.84;40.42;98904.06;4940251;29;20055;-85
2022/04/06 04:14:41;;;;;;;3.83;2.10;;;;;;;17.84;40.52;98912.00;4957461;29;20027;-86
2022/04/06 04:17:06;;;;;;;3.50;1.85;;;;;;;17.83;40.42;98900.56;4940461;29;20023;-86
2022/04/06 04:19:32;;;;;;;2.97;1.60;;;;;;;17.82;40.38;98906.78;4940564;29;20122;-85
2022/04/06 04:21:58;;;;;;;3.88;1.95;;;;;;;17.81;40.58;98907.75;4940442;29;20067;-86
2022/04/06 04:24:23;;;;;;;3.50;1.98;;;;;;;17.82;40.25;98905.97;4940644;29;20031;-86
2022/04/06 04:26:49;;;;;;;3.33;1.98;;;;;;;17.80;40.66;98911.31;4940369;29;20035;-87
2022/04/06 04:29:15;;;;;;;4.00;2.25;;;;;;;17.80;40.63;98908.69;4958169;29;20114;-86
2022/04/06 04:31:41;;;;;;;3.95;2.00;;;;;;;17.80;40.57;98911.31;4941561;29;20031;-86
2022/04/06 04:34:06;;;;;;;3.42;2.00;;;;;;;17.80;40.45;98907.81;4941591;29;20118;-87
2022/04/06 04:36:32;;;;;;;3.30;1.98;;;;;;;17.79;40.50;98914.91;4941989;29;20027;-85
2022/04/06 04:38:58;;;;;;;3.72;2.17;;;;;;;17.80;40.63;98913.09;4942284;29;20031;-86
2022/04/06 04:41:24;;;;;;;3.20;1.90;;;;;;;17.81;40.36;98909.50;4942123;29;20042;-86
2022/04/06 04:43:50;;;;;;;3.42;2.13;;;;;;;17.79;40.39;98914.03;4942720;29;20035;-86
2022/04/06 04:46:17;;;;;;;3.38;1.85;;;;;;;17.78;40.40;98913.19;4942989;29;20066;-86
2022/04/06 04:48:44;;;;;;;2.72;1.65;;;;;;;17.78;40.42;98914.97;4942881;29;20031;-86
2022/04/06 04:51:10;;;;;;;4.13;2.10;;;;;;;17.78;40.59;98917.63;4960402;29;20122;-86
2022/04/06 04:53:35;;;;;;;3.25;1.95;;;;;;;17.79;40.54;98914.91;4943538;29;20042;-86
2022/04/06 04:56:01;;;;;;;2.88;1.77;;;;;;;17.77;40.63;98919.41;4943855;29;20346;-86
2022/04/06 04:58:27;;;;;;;4.30;2.28;;;;;;;17.78;40.39;98922.91;4943494;29;20504;-86
2022/04/06 05:00:54;;;;;;;2.90;1.80;;;;;;;17.77;40.66;98922.03;4943651;29;20034;-86
2022/04/06 05:03:20;;;;;;;2.75;1.75;;;;;;;17.77;40.52;98926.47;4968766;29;20113;-86
2022/04/06 05:05:49;;;;;;;5.13;1.98;;;;;;;17.76;40.48;98922.97;4955010;29;20049;-85
2022/04/06 05:08:16;;;;;;;3.47;2.00;;;;;;;17.77;40.67;98921.19;4941026;29;20019;-86
2022/04/06 05:10:41;;;;;;;3.30;1.90;;;;;;;17.77;40.62;98926.47;4956730;29;20354;-85
2022/04/06 05:13:08;;;;;;;3.05;1.80;;;;;;;17.77;40.61;98931.75;4957829;29;20488;-85
2022/04/06 05:15:33;;;;;;;3.50;2.08;;;;;;;17.77;40.59;98937.03;4940654;29;20031;-86
2022/04/06 05:17:59;;;;;;;4.07;2.25;;;;;;;17.76;40.61;98935.31;4940822;29;20027;-86
2022/04/06 05:20:24;;;;;;;3.55;2.10;;;;;;;17.75;40.50;98930.97;4940871;29;20082;-86
2022/04/06 05:22:50;;;;;;;3.42;1.95;;;;;;;17.74;40.58;98931.91;4943866;29;20507;-86
2022/04/06 05:25:15;;;;;;;3.60;1.70;;;;;;;17.73;40.63;98940.78;4944522;29;20035;-86
2022/04/06 05:27:50;;;;;;;3.13;1.90;;;;;;;17.74;40.36;98930.13;4944773;29;20369;-86
2022/04/06 05:30:19;;;;;;;3.78;2.28;;;;;;;17.75;40.55;98934.47;4944613;29;20031;-86
2022/04/06 05:32:46;;;;;;;2.70;1.50;;;;;;;17.73;40.62;98936.34;4943802;29;20094;-86
2022/04/06 05:35:12;;;;;;;2.95;1.83;;;;;;;17.73;40.54;98936.34;4943233;29;20038;-86
2022/04/06 05:37:39;;;;;;;2.92;1.98;;;;;;;17.71;40.58;98944.34;4960523;29;20031;-86
2022/04/06 05:40:07;;;;;;;2.95;1.60;;;;;;;17.71;40.50;98944.34;4943890;29;20023;-86
2022/04/06 05:42:33;;;;;;;3.83;2.15;;;;;;;17.74;40.75;98943.34;4960271;29;20469;-85
2022/04/06 05:44:59;;;;;;;3.22;1.83;;;;;;;17.71;40.63;98944.34;4943330;29;20028;-86
2022/04/06 05:47:25;;;;;;;3.70;1.92;;;;;;;17.72;40.84;98945.19;4943709;29;20019;-86
2022/04/06 05:49:50;;;;;;;3.70;1.90;;;;;;;17.70;40.36;98949.72;4945842;29;20492;-86
2022/04/06 05:52:16;;;;;;;3.25;1.92;;;;;;;17.70;40.48;98950.56;4945927;29;20066;-86
2022/04/06 05:54:41;;;;;;;3.13;1.95;;;;;;;17.70;40.80;98953.22;4963220;29;20031;-85
2022/04/06 05:57:07;;;;;;;4.18;1.75;;;;;;;17.70;40.60;98950.56;4945773;29;20366;-87
2022/04/06 05:59:33;;;;;;;3.67;2.00;;;;;;;17.69;40.83;98958.56;4946052;29;20469;-86
2022/04/06 06:01:58;;;;;;;3.50;1.80;;;;;;;17.69;40.47;98958.56;4963620;29;20030;-85
2022/04/06 06:04:24;;;;;;;3.55;2.20;;;;;;;17.69;40.60;98962.03;4964879;29;20051;-86
2022/04/06 06:06:49;;;;;;;3.15;1.70;;;;;;;17.67;40.56;98956.00;4966233;29;20051;-86
2022/04/06 06:09:15;;;;;;;2.92;1.65;;;;;;;17.67;40.88;98960.44;4950215;29;20050;-85
2022/04/06 06:11:41;;;;;;;3.30;1.80;;;;;;;17.67;40.63;98963.91;4966092;29;20354;-86
2022/04/06 06:14:07;;;;;;;4.05;1.90;;;;;;;17.67;40.79;98958.66;4967665;29;20103;-86
2022/04/06 06:16:33;;;;;;;3.70;2.00;;;;;;;17.67;40.56;98956.00;4950528;29;20047;-86
2022/04/06 06:18:59;;;;;;;3.35;1.60;;;;;;;17.67;40.65;98956.00;4951669;29;20027;-87
2022/04/06 06:21:27;;;;;;;3.42;1.77;;;;;;;17.66;40.68;98958.72;4951068;29;20034;-85
2022/04/06 06:23:53;;;;;;;3.15;1.90;;;;;;;17.66;40.60;98956.09;4950632;29;20023;-86
2022/04/06 06:26:20;;;;;;;4.53;2.30;;;;;;;17.66;40.58;98956.94;4943609;29;20123;-85
2022/04/06 06:28:45;;;;;;;3.33;1.80;;;;;;;17.65;40.42;98960.53;4942826;29;20027;-86
2022/04/06 06:31:12;;;;;;;3.60;1.90;;;;;;;17.65;40.49;98959.66;4959157;29;20110;-86
2022/04/06 06:33:37;;;;;;;2.95;1.63;;;;;;;17.65;40.49;98957.88;4941864;29;20347;-86
2022/04/06 06:36:03;;;;;;;3.85;1.95;;;;;;;17.63;40.63;98962.38;4944196;29;20122;-86
2022/04/06 06:38:28;;;;;;;2.65;1.63;;;;;;;17.65;40.79;98963.16;4943430;29;20059;-85
2022/04/06 06:40:54;;;;;;;3.65;1.75;;;;;;;17.64;40.68;98958.81;4960507;29;20020;-86
2022/04/06 06:43:20;;;;;;;4.18;1.88;;;;;;;17.64;40.77;98968.53;4943834;29;20099;-86
2022/04/06 06:45:46;;;;;;;3.58;1.85;;;;;;;17.64;40.67;98957.97;4943455;29;20106;-85
2022/04/06 06:48:11;;;;;;;4.00;2.30;;;;;;;17.65;40.89;98960.53;4960526;29;20513;-86
2022/04/06 06:50:37;;;;;;;3.35;1.70;;;;;;;17.64;40.71;98969.38;4943608;29;20031;-86
2022/04/06 06:53:02;;;;;;;3.55;1.90;;;;;;;17.64;40.65;98974.66;4959490;29;20031;-86
2022/04/06 06:55:28;;;;;;;3.55;1.80;;;;;;;17.63;40.54;98972.94;4958957;29;20098;-86
2022/04/06 06:57:54;;;;;;;3.38;1.80;;;;;;;17.62;40.70;98965.94;4941886;29;20116;-86
2022/04/06 07:00:19;;;;;;;3.65;2.00;;;;;;;17.63;40.79;98972.09;4941869;29;20480;-86
2022/04/06 07:02:45;;;;;;;3.53;2.13;;;;;;;17.63;40.76;98975.56;4957822;29;20038;-86
2022/04/06 07:05:11;;;;;;;3.72;1.80;;;;;;;17.61;40.63;98972.19;4941573;29;20062;-86
2022/04/06 07:07:54;;;;;;;2.97;1.60;;;;;;;17.62;40.59;98976.50;4946774;29;20461;-87
2022/04/06 07:10:25;;;;;;;3.42;1.80;;;;;;;17.62;40.81;98976.50;4945868;29;20033;-85
2022/04/06 07:12:52;;;;;;;3.38;1.73;;;;;;;17.63;40.71;98980.84;4945847;29;20126;-86
2022/04/06 07:15:18;;;;;;;3.22;1.80;;;;;;;17.62;40.70;98979.16;4962914;29;20027;-86
2022/04/06 07:17:43;;;;;;;3.58;1.88;;;;;;;17.63;40.84;98977.38;4946785;29;20033;-86
2022/04/06 07:20:10;;;;;;;3.38;1.80;;;;;;;17.63;40.70;98978.22;4948145;29;20083;-85
2022/04/06 07:22:36;;;;;;;3.75;1.90;;;;;;;17.62;40.70;98979.16;4965086;29;20023;-86
2022/04/06 07:25:02;;;;;;;3.72;1.90;;;;;;;17.61;40.71;98974.81;4951075;29;20062;-86
2022/04/06 07:27:36;;;;;;;3.22;1.77;;;;;;;17.61;40.43;98974.81;4958406;29;20043;-87
2022/04/06 07:30:06;;;;;;;3.28;1.60;;;;;;;17.62;40.64;98975.69;4946517;29;20057;-86
2022/04/06 07:32:32;;;;;;;2.65;1.67;;;;;;;17.62;40.69;98973.03;4957149;29;20373;-87
2022/04/06 07:34:58;;;;;;;3.03;1.67;;;;;;;17.61;40.78;98969.53;4957370;29;20034;-86
2022/04/06 07:37:24;;;;;;;3.22;1.75;;;;;;;17.61;40.73;98969.53;4942878;29;20027;-86
2022/04/06 07:39:49;;;;;;;3.58;2.03;;;;;;;17.60;40.55;98973.13;4941905;29;20029;-86
2022/04/06 07:42:15;;;;;;;2.72;1.70;;;;;;;17.61;40.70;98968.66;4941660;29;20050;-85
2022/04/06 07:44:40;;;;;;;3.00;1.77;;;;;;;17.60;40.64;98972.25;4960242;28;20544;-87
2022/04/06 07:47:06;;;;;;;3.63;2.10;;;;;;;17.61;40.94;98964.25;4959132;29;20027;-86
2022/04/06 07:49:31;;;;;;;3.63;1.80;;;;;;;17.61;40.57;98969.53;4942455;29;20163;-86
2022/04/06 07:51:57;;;;;;;6.22;1.98;;;;;;;17.61;40.81;98974.81;4959255;29;20027;-85
2022/04/06 07:54:23;;;;;;;3.05;1.65;;;;;;;17.61;40.83;98979.22;4942368;29;20053;-85
2022/04/06 07:56:48;;;;;;;3.95;1.75;;;;;;;17.62;40.60;98976.50;4941803;29;20122;-87
2022/04/06 07:59:14;;;;;;;3.03;1.67;;;;;;;17.61;40.70;98980.09;4957915;29;20019;-86
2022/04/06 08:01:40;;;;;;;3.60;1.90;;;;;;;17.60;41.04;98977.53;4942628;29;20027;-90
2022/04/06 08:04:05;;;;;;;3.22;1.90;;;;;;;17.59;40.52;98976.69;4946560;29;20103;-89
2022/04/06 08:06:31;;;;;;;3.75;1.95;;;;;;;17.60;40.70;98977.53;4960660;29;20023;-90
2022/04/06 08:08:57;;;;;;;2.78;1.60;;;;;;;17.60;40.85;98981.03;4944936;29;20034;-90
2022/04/06 08:11:23;;;;;;;2.95;1.80;;;;;;;17.58;40.79;98975.00;4943681;29;20031;-91
2022/04/06 08:13:49;;;;;;;3.47;1.88;;;;;;;17.60;40.75;98978.38;4945076;29;20042;-90
2022/04/06 08:16:14;;;;;;;3.25;2.13;;;;;;;17.60;40.76;98978.38;4942267;29;20031;-87
2022/04/06 08:18:40;;;;;;;3.78;1.73;;;;;;;17.61;40.68;98982.72;4940408;29;20039;-87
2022/04/06 08:21:06;;;;;;;3.28;1.58;;;;;;;17.61;40.76;98982.72;4940791;29;20027;-87
2022/04/06 08:23:32;;;;;;;3.65;1.75;;;;;;;17.62;40.85;98984.41;4940861;29;20027;-87
2022/04/06 08:25:58;;;;;;;2.67;1.48;;;;;;;17.63;40.87;98986.13;4940756;29;20050;-88
2022/04/06 08:28:24;;;;;;;3.15;1.75;;;;;;;17.63;40.62;98988.75;4941852;29;20367;-88
2022/04/06 08:30:49;;;;;;;2.30;1.40;;;;;;;17.65;40.82;98992.19;4943821;29;20023;-87
2022/04/06 08:33:15;;;;;;;3.33;1.90;;;;;;;17.62;40.69;98994.97;4944843;29;20023;-88
2022/04/06 08:35:42;;;;;;;4.00;1.73;;;;;;;17.65;40.82;98997.47;4962259;29;20031;-90
2022/04/06 08:38:12;;;;;;;4.32;2.08;;;;;;;17.65;40.76;98996.59;4945823;29;20051;-91
2022/04/06 08:40:41;;;;;;;4.82;2.00;;;;;;;17.67;40.70;98994.75;4948079;29;20023;-88
2022/04/06 08:43:08;;;;;;;2.67;1.42;;;;;;;17.66;40.67;98993.88;4947933;29;20106;-87
2022/04/06 08:45:39;;;;;;;3.22;1.77;;;;;;;17.67;40.83;99000.84;4965265;29;20019;-87
2022/04/06 08:48:09;;;;;;;3.17;1.65;;;;;;;17.68;40.77;99007.84;4949212;29;20377;-87
2022/04/06 08:50:37;;;;;;;3.30;1.70;;;;;;;17.67;40.77;99006.13;4949537;29;20042;-88
2022/04/06 08:53:04;;;;;;;3.42;1.70;;;;;;;17.69;41.42;99008.69;4949584;29;20090;-88
2022/04/06 08:55:32;;;;;;;7.35;2.10;;;;;;;17.70;41.50;99015.69;4947342;29;20023;-86
2022/04/06 08:57:58;;;;;;;5.50;2.15;;;;;;;17.71;41.61;99005.03;4940195;29;20552;-86
2022/04/06 09:00:24;;;;;;;4.25;2.35;;;;;;;17.73;41.32;99007.59;4940972;29;20385;-86
2022/04/06 09:02:50;;;;;;;6.03;2.63;;;;;;;17.76;41.38;99014.47;4957929;29;20023;-85
2022/04/06 09:05:31;;;;;;;6.43;2.67;;;;;;;17.76;42.14;99014.47;4940407;29;20425;-87
2022/04/06 09:07:58;;;;;;;7.03;2.78;;;;;;;17.78;41.95;99017.91;4940493;29;20071;-85
2022/04/06 09:10:33;;;;;;;10.20;2.83;;;;;;;17.80;41.73;99018.66;4942250;29;20086;-90
2022/04/06 09:13:20;;;;;;;6.30;2.90;;;;;;;17.81;41.54;99023.00;4942622;29;20070;-89
2022/04/06 09:15:50;;;;;;;6.15;2.80;;;;;;;17.82;41.89;99024.72;4941464;29;20370;-86
2022/04/06 09:18:15;;;;;;;5.43;2.53;;;;;;;17.84;41.66;99033.41;4941917;29;20381;-89
2022/04/06 09:20:41;;;;;;;5.60;2.75;;;;;;;17.85;41.56;99019.25;4945057;29;20042;-90
2022/04/06 09:23:08;;;;;;;5.10;2.50;;;;;;;17.85;41.88;99025.41;4942636;29;20027;-91
2022/04/06 09:25:37;;;;;;;5.07;2.90;;;;;;;17.88;41.54;99024.38;4943839;29;20105;-89
2022/04/06 09:28:16;;;;;;;7.95;4.10;;;;;;;17.89;41.36;99023.44;4960695;29;20520;-91
2022/04/06 09:30:44;;;;;;;5.70;2.55;;;;;;;17.90;41.53;99025.16;4940944;29;20054;-89
2022/04/06 09:33:24;;;;;;;4.80;2.40;;;;;;;17.90;41.85;99033.06;4943670;29;20024;-90
2022/04/06 09:35:49;;;;;;;4.75;2.13;;;;;;;17.91;41.51;99024.19;4942613;29;20024;-88
2022/04/06 09:38:19;;;;;;;5.65;2.50;;;;;;;17.92;41.91;99031.19;4942892;29;20437;-89
2022/04/06 09:40:45;;;;;;;5.72;2.58;;;;;;;17.92;42.16;99031.19;4939884;29;20023;-89
2022/04/06 09:43:24;;;;;;;6.32;2.45;;;;;;;17.93;41.62;99038.16;4942294;29;20035;-89
2022/04/06 09:48:51;;;;;;;4.80;2.50;;;;;;;17.95;41.74;99031.03;4966539;28;20059;-89
2022/04/06 09:51:17;;;;;;;5.93;2.40;;;;;;;17.94;41.94;99031.97;4953181;29;20027;-89
2022/04/06 09:53:45;;;;;;;5.47;2.50;;;;;;;17.95;41.60;99036.31;4944559;29;20504;-89
2022/04/06 09:56:11;;;;;;;6.18;2.45;;;;;;;17.95;41.71;99031.03;4939912;29;20389;-87
2022/04/06 09:58:37;;;;;;;5.85;2.55;;;;;;;17.95;41.45;99048.63;4939719;29;20066;-89
2022/04/06 10:01:03;;;;;;;4.15;2.20;;;;;;;17.98;41.85;99043.22;4939742;29;20027;-88
2022/04/06 10:03:29;;;;;;;4.03;2.10;;;;;;;17.96;41.58;99042.41;4939901;29;20389;-89
2022/04/06 10:05:55;;;;;;;3.50;2.03;;;;;;;17.96;41.63;99035.38;4940711;29;20370;-88
2022/04/06 10:08:22;;;;;;;4.22;2.03;;;;;;;17.97;42.55;99039.69;4940254;29;20031;-88
2022/04/06 10:10:51;;;;;;;4.70;2.40;;;;;;;17.98;41.74;99038.75;4942428;29;20054;-88
2022/04/06 10:13:18;;;;;;;3.78;2.13;;;;;;;17.99;41.76;99039.63;4944732;29;20035;-90
2022/04/06 10:15:44;;;;;;;4.28;2.28;;;;;;;18.00;42.40;99037.84;4943246;29;20041;-89
2022/04/06 10:18:10;;;;;;;5.43;2.15;;;;;;;18.00;41.68;99043.97;4945773;29;20030;-91
2022/04/06 10:20:35;;;;;;;3.67;1.90;;;;;;;18.00;41.73;99037.84;4945470;29;20024;-90
2022/04/06 10:23:13;;;;;;;3.97;2.15;;;;;;;18.01;41.48;99039.56;4946323;29;20527;-88
2022/04/06 10:26:19;;;;;;;5.57;2.00;;;;;;;18.04;41.75;99039.38;4944660;29;20030;-91
2022/04/06 10:28:47;;;;;;;4.95;2.20;;;;;;;18.03;41.65;99032.38;4932967;29;20035;-90
2022/04/06 10:31:17;;;;;;;7.43;2.40;;;;;;;18.04;41.76;99028.81;4955080;29;20361;-91
2022/04/06 10:33:45;;;;;;;3.20;2.00;;;;;;;18.04;41.41;99028.81;4950085;29;20058;-90
2022/04/06 10:36:30;;;;;;;3.92;1.50;;;;;;;18.05;41.54;99031.38;4957822;28;20149;-91
2022/04/06 10:39:09;;;;;;;4.68;1.98;;;;;;;18.05;41.45;99033.13;4943946;29;20109;-91
2022/04/06 10:41:41;;;;;;;4.43;2.30;;;;;;;18.05;41.68;99034.00;4955352;28;20038;-91
2022/04/06 10:44:08;;;;;;;6.07;2.25;;;;;;;18.05;41.47;99035.78;4951566;29;20031;-90
2022/04/06 10:46:58;;;;;;;2.97;1.52;;;;;;;18.05;42.17;99035.78;4957880;29;20088;-90
2022/04/06 10:49:25;;;;;;;5.47;2.15;;;;;;;18.06;41.83;99032.25;4957949;29;20408;-91
2022/04/06 10:51:56;;;;;;;4.07;1.88;;;;;;;18.06;41.94;99037.53;4939077;29;20035;-90
2022/04/06 10:54:22;;;;;;;3.78;2.00;;;;;;;18.06;41.84;99037.53;4942565;29;20059;-91
2022/04/06 10:56:50;;;;;;;4.70;2.15;;;;;;;18.06;41.40;99032.25;4955655;29;20027;-90
2022/04/06 10:59:17;;;;;;;3.13;1.75;;;;;;;18.08;41.81;99035.66;4958315;29;20047;-91
2022/04/06 11:01:48;;;;;;;4.70;2.03;;;;;;;18.06;41.58;99029.63;4955989;28;20038;-92
2022/04/06 11:04:21;;;;;;;6.57;2.30;;;;;;;18.08;41.61;99030.38;4953642;28;20051;-90
2022/04/06 11:06:55;;;;;;;3.55;2.00;;;;;;;18.09;41.58;99032.06;4949255;29;20331;-89
2022/04/06 11:12:19;;;;;;;4.65;2.28;;;;;;;18.08;41.65;99025.09;4964869;29;20062;-90
2022/04/06 11:14:57;;;;;;;6.00;2.90;;;;;;;18.08;41.82;99025.09;4962512;29;20073;-90
2022/04/06 11:19:59;;;;;;;4.10;2.03;;;;;;;18.09;42.16;99024.16;4960023;28;20094;-90
2022/04/06 11:22:25;;;;;;;4.07;2.05;;;;;;;18.09;41.96;99021.50;4951648;29;20026;-92
2022/04/06 11:24:54;;;;;;;5.60;2.33;;;;;;;18.10;41.83;99025.84;4956500;29;20090;-92
2022/04/06 11:27:35;;;;;;;6.57;2.65;;;;;;;18.09;41.61;99026.78;4956985;29;20056;-91
2022/04/06 11:30:21;;;;;;;5.32;2.17;;;;;;;18.09;41.61;99025.00;4954373;29;20031;-90
2022/04/06 11:33:01;;;;;;;5.90;2.35;;;;;;;18.11;41.74;99030.19;4943020;29;20106;-90
2022/04/06 11:35:33;;;;;;;4.55;1.95;;;;;;;18.10;41.79;99023.22;4945158;29;20086;-90
2022/04/06 11:37:59;;;;;;;6.80;2.83;;;;;;;18.10;41.93;99029.34;4945968;29;20465;-88
2022/04/06 11:40:27;;;;;;;7.65;2.63;;;;;;;18.10;41.99;99018.78;4949639;29;20027;-91
2022/04/06 11:42:55;;;;;;;5.03;2.45;;;;;;;18.11;41.77;99024.91;4949689;29;20031;-91
2022/04/06 11:45:23;;;;;;;5.22;2.38;;;;;;;18.11;42.07;99024.91;4951949;29;20023;-92
2022/04/06 11:48:00;;;;;;;4.78;2.28;;;;;;;18.11;41.96;99024.91;4946243;29;20031;-89